Main page
METAR-TAF:

METAR-TAF

Airports :

Larnaca International Airport

Larnaca, Cyprus

latitude: 34-53N, longitude: 033-38E, elevation: 2 m

Current weather observation

The report was made 27 minutes ago, at 07:30 UTC
Wind 9 kt from the Northeast
Temperature 15°C
Humidity 67%
Pressure 1023 hPa
Visibility 10 km or more
Few clouds at a height of 2500 ft

METAR: LCLK 200730Z 05009KT 9999 FEW025 15/09 Q1023 NOSIG

Time: 09:57 (07:57 UTC)

Forecast

The report was made 2 hours and 27 minutes ago, at 05:30 UTC
Forecast valid from 20 at 06 UTC to 21 at 06 UTC
Wind 7 kt from the North
Visibility 10 km or more
Few clouds at a height of 2500 ft
Scattered clouds at a height of 4000 ft
Becoming
from 20 at 07 UTC to 20 at 10 UTC
Wind 12 kt from the East/Northeast
Becoming
from 20 at 16 UTC to 20 at 19 UTC
Wind 8 kt from the North

TAF: LCLK 200530Z 2006/2106 01007KT 9999 FEW025 SCT040 BECMG 2007/2010 07012KT BECMG 2016/2019 01008KT

Weather observations and forecasts of more than 4000 airports (METAR and TAF reports).

The available stations are represented by yellow and red dots on the map.

Hover mouse over dot to see the name of the station.

Then click to see weather observations and forecasts.

To change the map : click on the green buttons with a black cross to zoom in, on the green button with a dash to zoom out, or on the green arrows for adjacent maps.


METAR-TAF: